createdAt,value
2018-03-18T00:01:40.997Z,23.92
2018-03-18T00:04:09.086Z,26.47
2018-03-18T00:06:38.689Z,24.90
2018-03-18T00:09:06.862Z,21.05
2018-03-18T00:11:35.038Z,24.53
2018-03-18T00:14:03.934Z,17.74
2018-03-18T00:16:32.006Z,25.20
2018-03-18T00:19:00.086Z,24.70
2018-03-18T00:21:28.272Z,25.27
2018-03-18T00:23:56.329Z,22.57
2018-03-18T00:26:24.412Z,22.03
2018-03-18T00:28:52.482Z,19.60
2018-03-18T00:31:20.585Z,21.73
2018-03-18T00:33:48.657Z,25.07
2018-03-18T00:36:17.508Z,24.23
2018-03-18T00:38:45.624Z,23.20
2018-03-18T00:41:13.798Z,24.73
2018-03-18T00:43:41.869Z,21.17
2018-03-18T00:46:09.940Z,23.60
2018-03-18T00:48:38.129Z,24.17
2018-03-18T00:51:06.306Z,23.40
2018-03-18T00:53:34.396Z,22.93
2018-03-18T00:56:05.114Z,22.70
2018-03-18T00:58:34.302Z,18.10
2018-03-18T01:01:02.383Z,20.77
2018-03-18T01:03:30.450Z,21.97
2018-03-18T01:05:58.518Z,21.02
2018-03-18T01:08:26.638Z,21.40
2018-03-18T01:10:54.655Z,21.07
2018-03-18T01:13:23.478Z,17.90
2018-03-18T01:15:53.329Z,21.27
2018-03-18T01:18:22.174Z,20.17
2018-03-18T01:20:50.281Z,19.10
2018-03-18T01:23:18.346Z,19.73
2018-03-18T01:25:46.438Z,20.57
2018-03-18T01:28:14.605Z,18.98
2018-03-18T01:30:42.677Z,24.03
2018-03-18T01:33:10.771Z,20.93
2018-03-18T01:35:38.840Z,22.23
2018-03-18T01:38:07.022Z,20.10
2018-03-18T01:40:35.097Z,18.53
2018-03-18T01:43:03.282Z,21.75
2018-03-18T01:45:31.354Z,20.10
2018-03-18T01:47:59.434Z,20.07
2018-03-18T01:50:27.530Z,19.97
2018-03-18T01:53:14.310Z,20.37
2018-03-18T01:55:42.389Z,20.40
2018-03-18T01:58:10.454Z,22.87
2018-03-18T02:00:38.612Z,18.80
2018-03-18T02:03:06.728Z,18.83
2018-03-18T02:05:35.430Z,16.62
2018-03-18T02:08:03.502Z,19.40
2018-03-18T02:10:31.578Z,20.80
2018-03-18T02:12:59.650Z,17.87
2018-03-18T02:15:27.718Z,21.50
2018-03-18T02:17:55.793Z,20.67
2018-03-18T02:20:23.858Z,21.57
2018-03-18T02:22:52.382Z,18.00
2018-03-18T02:25:21.245Z,18.85
2018-03-18T02:27:49.322Z,20.27
2018-03-18T02:30:17.378Z,18.75
2018-03-18T02:32:45.449Z,23.10
2018-03-18T02:35:13.518Z,21.90
2018-03-18T02:37:41.595Z,19.70
2018-03-18T02:40:09.664Z,18.43
2018-03-18T02:42:37.790Z,21.83
2018-03-18T02:45:05.881Z,21.73
2018-03-18T02:47:33.970Z,23.60
2018-03-18T02:50:02.054Z,22.42
2018-03-18T02:52:30.887Z,21.70
2018-03-18T02:54:58.951Z,22.13
2018-03-18T02:57:27.372Z,24.73
2018-03-18T02:59:55.449Z,19.40
2018-03-18T03:02:23.522Z,21.27
2018-03-18T03:04:53.205Z,23.00
2018-03-18T03:07:21.306Z,23.98
2018-03-18T03:09:49.373Z,22.10
2018-03-18T03:12:17.461Z,22.00
2018-03-18T03:14:45.542Z,20.07
2018-03-18T03:17:13.614Z,20.20
2018-03-18T03:19:41.790Z,21.17
2018-03-18T03:22:09.861Z,20.95
2018-03-18T03:24:37.931Z,22.90
2018-03-18T03:27:07.418Z,21.12
2018-03-18T03:29:36.466Z,22.36
2018-03-18T03:32:04.538Z,22.87
2018-03-18T03:34:32.603Z,23.60
2018-03-18T03:37:00.677Z,25.17
2018-03-18T03:39:28.746Z,23.00
2018-03-18T03:41:56.933Z,21.77
2018-03-18T03:44:25.673Z,23.80
2018-03-18T03:46:54.631Z,19.60
2018-03-18T03:49:22.798Z,22.40
2018-03-18T03:51:50.874Z,20.40
2018-03-18T03:54:18.967Z,20.93
2018-03-18T03:56:47.054Z,23.67
2018-03-18T03:59:15.110Z,21.00
2018-03-18T04:01:43.187Z,22.03
2018-03-18T04:04:11.266Z,25.92
2018-03-18T04:06:39.342Z,22.30
2018-03-18T04:09:07.514Z,22.73
2018-03-18T04:11:35.706Z,24.40
2018-03-18T04:14:03.762Z,24.17
2018-03-18T04:16:31.844Z,24.23
2018-03-18T04:18:59.922Z,22.70
2018-03-18T04:21:28.002Z,22.23
2018-03-18T04:23:56.083Z,21.85
2018-03-18T04:26:24.145Z,24.83
2018-03-18T04:28:53.259Z,22.63
2018-03-18T04:31:21.330Z,25.00
2018-03-18T04:33:49.440Z,21.83
2018-03-18T04:36:17.598Z,21.70
2018-03-18T04:38:45.678Z,21.53
2018-03-18T04:41:13.850Z,23.90
2018-03-18T04:43:43.435Z,21.33
2018-03-18T04:46:11.659Z,20.17
2018-03-18T04:48:39.750Z,19.43
2018-03-18T04:51:08.714Z,20.90
2018-03-18T04:53:37.719Z,19.08
2018-03-18T04:56:05.782Z,21.75
2018-03-18T04:58:33.881Z,21.07
2018-03-18T05:01:02.040Z,21.65
2018-03-18T05:03:30.109Z,22.90
2018-03-18T05:05:58.182Z,19.87
2018-03-18T05:08:26.361Z,20.90
2018-03-18T05:10:54.537Z,20.97
2018-03-18T05:13:22.722Z,21.02
2018-03-18T05:15:50.786Z,17.87
2018-03-18T05:18:18.857Z,21.00
2018-03-18T05:20:46.930Z,20.50
2018-03-18T05:23:15.015Z,20.70
2018-03-18T05:25:43.082Z,22.80
2018-03-18T05:28:11.166Z,19.17
2018-03-18T05:30:39.254Z,19.43
2018-03-18T05:33:08.837Z,17.18
2018-03-18T05:35:38.030Z,20.17
2018-03-18T05:38:06.099Z,18.02
2018-03-18T05:40:34.163Z,19.80
2018-03-18T05:43:03.042Z,19.37
2018-03-18T05:45:31.101Z,19.08
2018-03-18T05:47:59.278Z,20.98
2018-03-18T05:50:27.349Z,21.47
2018-03-18T05:52:55.431Z,20.53
2018-03-18T05:55:23.490Z,19.30
2018-03-18T05:57:52.290Z,15.70
2018-03-18T06:00:20.358Z,19.20
2018-03-18T06:02:48.434Z,17.73
2018-03-18T06:05:16.512Z,17.43
2018-03-18T06:07:44.583Z,17.73
2018-03-18T06:10:12.650Z,18.00
2018-03-18T06:12:41.248Z,16.60
2018-03-18T06:15:09.330Z,19.13
2018-03-18T06:17:38.634Z,17.93
2018-03-18T06:20:06.702Z,15.43
2018-03-18T06:22:34.794Z,16.87
2018-03-18T06:25:02.882Z,16.67
2018-03-18T06:27:30.943Z,14.30
2018-03-18T06:29:59.002Z,17.33
2018-03-18T06:32:27.106Z,16.93
2018-03-18T06:34:55.990Z,16.73
2018-03-18T06:37:24.061Z,19.93
2018-03-18T06:39:52.286Z,16.50
2018-03-18T06:42:21.134Z,13.38
2018-03-18T06:44:49.326Z,16.30
2018-03-18T06:47:17.409Z,15.65
2018-03-18T06:49:45.481Z,16.92
2018-03-18T06:52:13.653Z,14.10
2018-03-18T06:54:41.720Z,17.37
2018-03-18T06:57:09.798Z,17.37
2018-03-18T06:59:37.886Z,15.27
2018-03-18T07:02:06.055Z,17.30
2018-03-18T07:04:34.126Z,16.63
2018-03-18T07:07:02.199Z,17.08
2018-03-18T07:09:30.277Z,14.80
2018-03-18T07:11:58.341Z,15.60
2018-03-18T07:14:26.439Z,16.48
2018-03-18T07:16:54.500Z,15.03
2018-03-18T07:19:22.590Z,16.10
2018-03-18T07:21:50.671Z,15.93
2018-03-18T07:24:18.938Z,17.05
2018-03-18T07:26:46.918Z,17.67
2018-03-18T07:29:14.993Z,14.85
2018-03-18T07:31:43.074Z,15.40
2018-03-18T07:34:11.160Z,16.20
2018-03-18T07:36:40.462Z,17.03
2018-03-18T07:39:08.538Z,16.90
2018-03-18T07:41:36.630Z,14.67
2018-03-18T07:44:04.701Z,14.48
2018-03-18T07:46:32.871Z,13.47
2018-03-18T07:49:00.942Z,15.87
2018-03-18T07:51:29.010Z,16.33
2018-03-18T07:53:57.095Z,16.92
2018-03-18T07:56:25.270Z,15.53
2018-03-18T07:58:53.442Z,16.13
2018-03-18T08:01:21.513Z,15.83
2018-03-18T08:03:49.587Z,16.27
2018-03-18T08:06:17.670Z,14.80
2018-03-18T08:08:45.854Z,15.57
2018-03-18T08:11:13.948Z,14.87
2018-03-18T08:13:42.121Z,15.40
2018-03-18T08:16:11.511Z,13.62
2018-03-18T08:18:40.716Z,17.40
2018-03-18T08:21:08.810Z,15.32
2018-03-18T08:23:36.978Z,17.87
2018-03-18T08:26:05.049Z,19.20
2018-03-18T08:28:33.152Z,13.13
2018-03-18T08:31:01.209Z,13.60
2018-03-18T08:33:29.286Z,15.03
2018-03-18T08:35:57.371Z,15.83
2018-03-18T08:38:25.422Z,16.98
2018-03-18T08:40:53.498Z,15.60
2018-03-18T08:43:21.570Z,14.20
2018-03-18T08:45:49.641Z,11.53
2018-03-18T08:48:17.706Z,15.10
2018-03-18T08:50:45.782Z,16.08
2018-03-18T08:53:14.651Z,16.23
2018-03-18T08:55:43.505Z,16.43
2018-03-18T08:58:11.678Z,14.90
2018-03-18T09:00:39.742Z,16.00
2018-03-18T09:03:07.830Z,17.67
2018-03-18T09:05:35.899Z,14.77
2018-03-18T09:08:03.974Z,15.55
2018-03-18T09:10:32.062Z,15.67
2018-03-18T09:13:00.126Z,14.60
2018-03-18T09:15:28.316Z,16.27
2018-03-18T09:17:56.396Z,16.58
2018-03-18T09:20:24.571Z,15.05
2018-03-18T09:22:52.638Z,15.70
2018-03-18T09:25:20.736Z,17.60
2018-03-18T09:27:48.793Z,14.67
2018-03-18T09:30:16.980Z,15.90
2018-03-18T09:32:45.062Z,15.57
2018-03-18T09:35:13.140Z,16.20
2018-03-18T09:37:41.741Z,15.45
2018-03-18T09:40:09.810Z,18.27
2018-03-18T09:42:38.198Z,17.50
2018-03-18T09:45:06.275Z,15.98
2018-03-18T09:47:34.337Z,14.43
2018-03-18T09:50:02.510Z,17.50
2018-03-18T09:52:30.570Z,12.73
2018-03-18T09:54:58.659Z,14.43
2018-03-18T09:57:26.842Z,14.93
2018-03-18T09:59:54.914Z,16.27
2018-03-18T10:02:22.990Z,19.00
2018-03-18T10:04:52.949Z,13.68
2018-03-18T10:07:21.977Z,12.23
2018-03-18T10:09:50.090Z,16.02
2018-03-18T10:12:18.271Z,12.98
2018-03-18T10:14:46.346Z,16.85
2018-03-18T10:17:14.422Z,16.00
2018-03-18T10:19:42.491Z,16.23
2018-03-18T10:22:10.558Z,14.80
2018-03-18T10:24:38.770Z,15.27
2018-03-18T10:27:08.346Z,13.97
2018-03-18T10:29:36.406Z,14.40
2018-03-18T10:32:04.525Z,14.57
2018-03-18T10:34:32.592Z,13.67
2018-03-18T10:37:00.770Z,15.88
2018-03-18T10:39:28.830Z,16.97
2018-03-18T10:41:56.966Z,14.82
2018-03-18T10:44:24.968Z,17.90
2018-03-18T10:46:53.045Z,15.18
2018-03-18T10:49:21.228Z,16.55
2018-03-18T10:51:50.051Z,16.10
2018-03-18T10:54:18.126Z,11.40
2018-03-18T10:56:46.321Z,15.30
2018-03-18T10:59:15.237Z,15.03
2018-03-18T11:01:49.276Z,15.23
2018-03-18T11:04:18.212Z,13.73
2018-03-18T11:06:46.357Z,14.90
2018-03-18T11:09:14.437Z,15.20
2018-03-18T11:11:43.762Z,15.37
2018-03-18T11:14:12.975Z,20.47
2018-03-18T11:16:41.145Z,15.30
2018-03-18T11:19:09.235Z,14.82
2018-03-18T11:21:37.366Z,14.83
2018-03-18T11:24:05.470Z,14.07
2018-03-18T11:26:33.555Z,14.63
2018-03-18T11:29:01.705Z,14.43
2018-03-18T11:31:29.805Z,15.47
2018-03-18T11:33:57.926Z,14.75
2018-03-18T11:36:26.841Z,14.93
2018-03-18T11:38:55.428Z,15.90
2018-03-18T11:41:23.557Z,14.10
2018-03-18T11:43:52.461Z,15.43
2018-03-18T11:46:20.688Z,23.50
2018-03-18T11:48:48.799Z,16.73
2018-03-18T11:51:16.990Z,13.60
2018-03-18T11:53:45.041Z,16.57
2018-03-18T11:56:13.671Z,14.68
2018-03-18T11:58:41.898Z,14.60
2018-03-18T12:01:09.967Z,14.75
2018-03-18T12:03:38.022Z,16.00
2018-03-18T12:06:06.946Z,14.30
2018-03-18T12:08:52.860Z,16.57
2018-03-18T12:11:20.985Z,14.53
2018-03-18T12:13:49.118Z,15.43
2018-03-18T12:16:17.204Z,15.43
2018-03-18T12:18:46.318Z,13.30
2018-03-18T12:21:15.194Z,16.27
2018-03-18T12:23:44.039Z,16.17
2018-03-18T12:26:12.165Z,18.13
2018-03-18T12:28:40.220Z,17.00
2018-03-18T12:31:08.411Z,16.50
2018-03-18T12:33:36.504Z,16.50
2018-03-18T12:36:04.658Z,15.30
2018-03-18T12:38:32.734Z,16.33
2018-03-18T12:41:00.798Z,15.20
2018-03-18T12:43:29.807Z,15.60
2018-03-18T12:45:57.884Z,16.20
2018-03-18T12:48:26.063Z,15.57
2018-03-18T12:50:54.141Z,14.70
2018-03-18T12:53:22.214Z,13.83
2018-03-18T12:55:50.589Z,17.47
2018-03-18T12:58:18.648Z,14.27
2018-03-18T13:00:46.693Z,16.50
2018-03-18T13:03:15.533Z,14.80
2018-03-18T13:05:44.756Z,16.77
2018-03-18T13:08:12.930Z,16.67
2018-03-18T13:10:41.202Z,14.53
2018-03-18T13:13:09.268Z,15.60
2018-03-18T13:15:37.323Z,15.30
2018-03-18T13:18:05.421Z,16.30
2018-03-18T13:20:33.485Z,13.48
2018-03-18T13:23:01.586Z,18.67
2018-03-18T13:25:29.758Z,16.70
2018-03-18T13:27:57.838Z,14.90
2018-03-18T13:30:25.988Z,17.35
2018-03-18T13:32:54.186Z,14.75
2018-03-18T13:35:22.294Z,16.75
2018-03-18T13:37:50.598Z,13.80
2018-03-18T13:40:19.463Z,14.30
2018-03-18T13:42:47.634Z,15.03
2018-03-18T13:45:15.755Z,15.43
2018-03-18T13:47:45.770Z,15.23
2018-03-18T13:50:15.783Z,16.43
2018-03-18T13:52:45.755Z,15.60
2018-03-18T13:55:13.822Z,14.43
2018-03-18T13:57:42.082Z,15.47
2018-03-18T14:00:10.260Z,16.08
2018-03-18T14:02:38.282Z,13.90
2018-03-18T14:05:06.391Z,16.37
2018-03-18T14:07:35.234Z,13.65
2018-03-18T14:10:03.304Z,16.47
2018-03-18T14:12:31.410Z,15.80
2018-03-18T14:14:59.465Z,13.40
2018-03-18T14:17:27.756Z,15.32
2018-03-18T14:19:55.846Z,14.00
2018-03-18T14:22:23.918Z,12.55
2018-03-18T14:24:53.091Z,17.65
2018-03-18T14:27:21.185Z,17.08
2018-03-18T14:29:49.739Z,15.87
2018-03-18T14:32:17.828Z,17.33
2018-03-18T14:34:47.050Z,14.30
2018-03-18T14:37:17.091Z,15.15
2018-03-18T14:39:46.273Z,15.80
2018-03-18T14:42:14.345Z,15.15
2018-03-18T14:44:42.664Z,14.73
2018-03-18T14:47:10.769Z,14.23
2018-03-18T14:49:38.895Z,13.70
2018-03-18T14:52:07.143Z,17.15
2018-03-18T14:54:35.223Z,14.43
2018-03-18T14:57:03.419Z,14.98
2018-03-18T14:59:31.486Z,14.98
2018-03-18T15:01:59.562Z,17.52
2018-03-18T15:04:27.747Z,15.60
2018-03-18T15:06:55.822Z,16.57
2018-03-18T15:09:23.910Z,15.10
2018-03-18T15:11:52.474Z,16.00
2018-03-18T15:14:20.535Z,14.33
2018-03-18T15:16:48.658Z,15.50
2018-03-18T15:19:17.727Z,13.80
2018-03-18T15:21:47.812Z,15.68
2018-03-18T15:24:17.769Z,15.53
2018-03-18T15:26:47.827Z,17.37
2018-03-18T15:29:15.977Z,11.13
2018-03-18T15:31:44.163Z,13.70
2018-03-18T15:34:12.249Z,13.02
2018-03-18T15:36:40.438Z,14.20
2018-03-18T15:39:08.623Z,14.77
2018-03-18T15:41:36.836Z,16.87
2018-03-18T15:44:04.970Z,9.50
2018-03-18T15:46:33.141Z,12.25
2018-03-18T15:49:01.322Z,14.97
2018-03-18T15:51:29.737Z,13.50
2018-03-18T15:53:57.846Z,13.90
2018-03-18T15:56:25.958Z,12.03
2018-03-18T15:58:54.207Z,13.03
2018-03-18T16:01:22.307Z,14.18
2018-03-18T16:03:50.398Z,14.30
2018-03-18T16:06:18.525Z,14.97
2018-03-18T16:08:48.502Z,12.25
2018-03-18T16:11:18.526Z,14.90
2018-03-18T16:13:47.743Z,15.60
2018-03-18T16:16:15.840Z,11.63
2018-03-18T16:18:44.669Z,12.90
2018-03-18T16:21:13.702Z,11.80
2018-03-18T16:23:41.826Z,14.40
2018-03-18T16:26:09.894Z,14.47
2018-03-18T16:28:38.010Z,14.90
2018-03-18T16:31:12.749Z,14.02
2018-03-18T16:33:40.834Z,12.77
2018-03-18T16:36:09.083Z,12.60
2018-03-18T16:38:37.174Z,11.63
2018-03-18T16:41:05.289Z,14.15
2018-03-18T16:43:34.691Z,13.60
2018-03-18T16:46:03.553Z,13.15
2018-03-18T16:48:31.698Z,13.50
2018-03-18T16:50:59.869Z,11.30
2018-03-18T16:53:27.950Z,14.17
2018-03-18T16:55:56.238Z,13.30
2018-03-18T16:58:24.329Z,16.62
2018-03-18T17:00:53.673Z,15.60
2018-03-18T17:03:22.527Z,13.27
2018-03-18T17:05:50.590Z,14.90
2018-03-18T17:08:18.844Z,13.67
2018-03-18T17:10:48.866Z,13.43
2018-03-18T17:13:18.831Z,15.40
2018-03-18T17:15:47.151Z,11.33
2018-03-18T17:18:16.082Z,15.73
2018-03-18T17:20:44.194Z,15.63
2018-03-18T17:23:12.282Z,14.60
2018-03-18T17:25:40.458Z,16.03
2018-03-18T17:28:08.565Z,15.60
2018-03-18T17:30:37.422Z,14.57
2018-03-18T17:33:05.520Z,13.70
2018-03-18T17:35:34.382Z,14.48
2018-03-18T17:38:02.549Z,13.17
2018-03-18T17:40:31.418Z,13.35
2018-03-18T17:43:00.298Z,14.37
2018-03-18T17:49:02.613Z,11.53
2018-03-18T17:51:48.607Z,12.43
2018-03-18T17:54:34.915Z,13.27
2018-03-18T17:57:03.117Z,14.40
2018-03-18T17:59:31.999Z,12.35
2018-03-18T18:02:00.087Z,13.85
2018-03-18T18:04:28.942Z,12.83
2018-03-18T18:06:57.120Z,11.70
2018-03-18T18:09:25.206Z,12.13
2018-03-18T18:11:53.269Z,12.73
2018-03-18T18:14:21.388Z,13.32
2018-03-18T18:16:49.977Z,13.25
2018-03-18T18:19:20.058Z,15.20
2018-03-18T18:21:48.464Z,12.20
2018-03-18T18:24:16.526Z,12.43
2018-03-18T18:26:44.703Z,10.87
2018-03-18T18:29:13.110Z,12.30
2018-03-18T18:31:41.173Z,12.17
2018-03-18T18:34:09.298Z,11.53
2018-03-18T18:36:37.436Z,11.45
2018-03-18T18:39:05.594Z,14.00
2018-03-18T18:41:33.791Z,12.63
2018-03-18T18:44:01.853Z,13.65
2018-03-18T18:46:29.926Z,12.93
2018-03-18T18:48:58.145Z,13.88
2018-03-18T18:51:27.006Z,12.23
2018-03-18T18:53:55.064Z,10.10
2018-03-18T18:56:23.427Z,12.57
2018-03-18T18:58:52.434Z,12.55
2018-03-18T19:01:20.551Z,12.67
2018-03-18T19:03:48.669Z,12.23
2018-03-18T19:06:16.788Z,12.93
2018-03-18T19:08:44.870Z,13.20
2018-03-18T19:11:13.158Z,12.03
2018-03-18T19:13:41.591Z,13.33
2018-03-18T19:16:09.674Z,11.13
2018-03-18T19:18:37.987Z,10.38
2018-03-18T19:21:06.053Z,12.23
2018-03-18T19:23:34.119Z,14.47
2018-03-18T19:26:02.483Z,10.27
2018-03-18T19:28:30.546Z,11.27
2018-03-18T19:30:59.536Z,12.40
2018-03-18T19:33:28.504Z,12.77
2018-03-18T19:35:56.613Z,13.13
2018-03-18T19:38:24.691Z,12.27
2018-03-18T19:40:53.535Z,13.87
2018-03-18T19:43:21.867Z,13.43
2018-03-18T19:45:52.009Z,12.17
2018-03-18T19:48:21.216Z,13.50
2018-03-18T19:50:49.418Z,14.10
2018-03-18T19:53:17.482Z,14.43
2018-03-18T19:55:45.543Z,11.67
2018-03-18T19:58:13.733Z,12.90
2018-03-18T20:00:41.826Z,12.93
2018-03-18T20:03:09.931Z,14.15
2018-03-18T20:05:38.091Z,12.43
2018-03-18T20:08:06.263Z,13.82
2018-03-18T20:10:34.344Z,12.10
2018-03-18T20:13:02.410Z,13.13
2018-03-18T20:15:30.650Z,12.77
2018-03-18T20:17:59.513Z,15.40
2018-03-18T20:20:27.580Z,14.60
2018-03-18T20:22:55.646Z,14.07
2018-03-18T20:25:23.822Z,15.07
2018-03-18T20:27:53.926Z,12.77
2018-03-18T20:30:22.937Z,12.40
2018-03-18T20:32:52.928Z,15.48
2018-03-18T20:35:22.874Z,15.30
2018-03-18T20:37:52.938Z,15.20
2018-03-18T20:40:22.947Z,14.13
2018-03-18T20:42:52.890Z,13.60
2018-03-18T20:45:22.865Z,13.83
2018-03-18T20:47:51.042Z,15.13
2018-03-18T20:50:19.110Z,13.10
2018-03-18T20:52:48.110Z,12.10
2018-03-18T20:55:16.194Z,12.77
2018-03-18T20:57:44.447Z,14.90
2018-03-18T21:00:12.518Z,14.87
2018-03-18T21:02:40.591Z,12.73
2018-03-18T21:05:08.662Z,14.00
2018-03-18T21:07:36.735Z,12.57
2018-03-18T21:10:04.846Z,14.13
2018-03-18T21:12:32.925Z,13.47
2018-03-18T21:15:00.995Z,14.83
2018-03-18T21:17:29.050Z,11.97
2018-03-18T21:19:57.166Z,15.23
2018-03-18T21:22:25.218Z,14.43
2018-03-18T21:24:53.862Z,15.80
2018-03-18T21:27:23.650Z,14.80
2018-03-18T21:29:54.248Z,13.85
2018-03-18T21:32:23.699Z,13.60
2018-03-18T21:34:53.622Z,15.93
2018-03-18T21:37:22.826Z,15.80
2018-03-18T21:39:50.919Z,12.82
2018-03-18T21:42:19.780Z,14.55
2018-03-18T21:44:47.869Z,16.77
2018-03-18T21:47:16.030Z,15.18
2018-03-18T21:49:44.478Z,12.07
2018-03-18T21:52:12.716Z,15.43
2018-03-18T21:54:40.934Z,15.43
2018-03-18T21:57:09.047Z,15.30
2018-03-18T21:59:37.115Z,14.80
2018-03-18T22:02:05.190Z,15.73
2018-03-18T22:04:33.270Z,15.27
2018-03-18T22:07:01.351Z,15.40
2018-03-18T22:09:29.413Z,13.90
2018-03-18T22:11:57.498Z,13.93
2018-03-18T22:14:25.582Z,15.23
2018-03-18T22:16:54.312Z,15.68
2018-03-18T22:19:24.090Z,16.12
2018-03-18T22:21:52.297Z,15.10
2018-03-18T22:24:20.364Z,15.37
2018-03-18T22:26:48.438Z,15.10
2018-03-18T22:29:17.268Z,17.07
2018-03-18T22:31:45.348Z,16.27
2018-03-18T22:34:13.402Z,14.77
2018-03-18T22:36:42.266Z,16.65
2018-03-18T22:39:10.342Z,18.35
2018-03-18T22:41:38.422Z,16.00
2018-03-18T22:44:06.477Z,18.83
2018-03-18T22:46:34.550Z,15.00
2018-03-18T22:49:03.378Z,18.40
2018-03-18T22:51:33.074Z,14.77
2018-03-18T22:54:01.134Z,13.20
2018-03-18T22:56:29.206Z,17.23
2018-03-18T22:58:57.270Z,14.00
2018-03-18T23:01:25.387Z,16.23
2018-03-18T23:03:53.675Z,16.45
2018-03-18T23:06:21.763Z,14.33
2018-03-18T23:08:49.818Z,14.97
2018-03-18T23:11:17.894Z,15.13
2018-03-18T23:13:46.062Z,16.33
2018-03-18T23:16:14.246Z,16.80
2018-03-18T23:18:42.309Z,16.67
2018-03-18T23:21:10.413Z,17.53
2018-03-18T23:23:38.622Z,16.40
2018-03-18T23:26:07.537Z,17.40
2018-03-18T23:28:35.646Z,16.83
2018-03-18T23:31:03.826Z,14.47
2018-03-18T23:33:31.891Z,13.87
2018-03-18T23:35:59.979Z,18.40
2018-03-18T23:38:28.055Z,16.02
2018-03-18T23:40:56.127Z,20.33
2018-03-18T23:43:24.206Z,17.03
2018-03-18T23:45:54.332Z,17.17
2018-03-18T23:48:22.388Z,16.83
2018-03-18T23:50:50.464Z,13.63
2018-03-18T23:53:18.551Z,17.47
2018-03-18T23:55:46.645Z,18.70
2018-03-18T23:58:14.710Z,16.93
